EKCH/CPH METAR and TAF weather

Enter ICAO airport designator
Station Type Date Time Source
EKCH METAR 2022/06/28 23:50 UTC NOAA

EKCH 282350Z AUTO 29001KT 9999 NCD 15/12 Q1021 NOSIG


Station Type Date Time Source
EKCH Decoded METAR 2022/06/28 23:50 UTC NOAA

Koebenhavn / Kastrup, Denmark (EKCH) 55-37N 012-39E 5M
Jun 28, 2022 - 07:50 PM EDT / 2022.06.28 2350 UTC
Wind: from the WNW (290 degrees) at 1 MPH (1 KT):0
Visibility: greater than 7 mile(s):0
Temperature: 59 F (15 C)
Dew Point: 53 F (12 C)
Relative Humidity: 82%
Pressure (altimeter): 30.15 in. Hg (1021 hPa)
ob: EKCH 282350Z AUTO 29001KT 9999 NCD 15/12 Q1021 NOSIG
cycle: 0

Station Type Date Time Source
EKCH TAF 2022/06/28 18:31 UTC NOAA

TAF EKCH 281703Z 2818/2918 03006KT 9999 FEW040

Example: see airport list